createdAt,value
2016-11-26T00:00:22.756Z,39.97
2016-11-26T00:01:03.301Z,39.97
2016-11-26T00:01:43.859Z,39.69
2016-11-26T00:02:24.398Z,39.95
2016-11-26T00:03:04.947Z,39.86
2016-11-26T00:03:45.500Z,39.59
2016-11-26T00:04:26.034Z,39.69
2016-11-26T00:05:06.562Z,39.76
2016-11-26T00:05:47.098Z,39.47
2016-11-26T00:06:27.650Z,39.86
2016-11-26T00:07:08.187Z,39.57
2016-11-26T00:07:48.722Z,39.97
2016-11-26T00:08:29.267Z,39.76
2016-11-26T00:09:09.814Z,39.78
2016-11-26T00:09:50.357Z,39.37
2016-11-26T00:10:30.889Z,39.59
2016-11-26T00:11:11.436Z,39.29
2016-11-26T00:11:51.983Z,39.09
2016-11-26T00:12:32.520Z,39.37
2016-11-26T00:13:13.072Z,39.66
2016-11-26T00:13:53.615Z,38.91
2016-11-26T00:14:34.156Z,38.7
2016-11-26T00:15:14.703Z,39.28
2016-11-26T00:15:55.245Z,39.09
2016-11-26T00:16:35.788Z,38.79
2016-11-26T00:17:16.341Z,39.01
2016-11-26T00:17:56.884Z,39.18
2016-11-26T00:18:37.428Z,39.2
2016-11-26T00:19:17.971Z,39.28
2016-11-26T00:19:58.511Z,38.7
2016-11-26T00:20:39.060Z,38.89
2016-11-26T00:21:19.609Z,38.91
2016-11-26T00:22:00.146Z,38.62
2016-11-26T00:22:40.693Z,39.09
2016-11-26T00:23:21.228Z,39.11
2016-11-26T00:24:01.782Z,39.28
2016-11-26T00:24:42.322Z,39.2
2016-11-26T00:25:22.870Z,39.18
2016-11-26T00:26:03.424Z,38.62
2016-11-26T00:26:43.958Z,38.6
2016-11-26T00:27:24.494Z,38.71
2016-11-26T00:28:05.025Z,38.91
2016-11-26T00:28:45.572Z,38.99
2016-11-26T00:29:26.125Z,38.81
2016-11-26T00:30:06.659Z,38.53
2016-11-26T00:30:47.203Z,38.79
2016-11-26T00:31:27.750Z,38.99
2016-11-26T00:32:08.293Z,38.71
2016-11-26T00:32:48.832Z,38.31
2016-11-26T00:33:29.373Z,38.43
2016-11-26T00:34:09.943Z,38.33
2016-11-26T00:34:50.492Z,38.04
2016-11-26T00:35:31.030Z,38.23
2016-11-26T00:36:11.571Z,37.95
2016-11-26T00:36:52.114Z,37.75
2016-11-26T00:37:32.671Z,38.02
2016-11-26T00:38:13.216Z,37.85
2016-11-26T00:38:53.777Z,38.14
2016-11-26T00:39:34.318Z,37.85
2016-11-26T00:40:14.877Z,38.14
2016-11-26T00:40:55.416Z,37.85
2016-11-26T00:41:35.982Z,37.93
2016-11-26T00:42:16.521Z,37.85
2016-11-26T00:42:57.059Z,38.14
2016-11-26T00:43:37.599Z,37.83
2016-11-26T00:44:18.144Z,37.95
2016-11-26T00:44:58.681Z,37.95
2016-11-26T00:45:39.227Z,37.75
2016-11-26T00:46:19.784Z,37.73
2016-11-26T00:47:00.322Z,37.83
2016-11-26T00:47:40.870Z,37.83
2016-11-26T00:48:21.407Z,38.02
2016-11-26T00:49:01.951Z,38.14
2016-11-26T00:49:42.496Z,38.23
2016-11-26T00:50:23.044Z,38.14
2016-11-26T00:51:03.584Z,38.04
2016-11-26T00:51:44.127Z,37.83
2016-11-26T00:52:24.676Z,38.04
2016-11-26T00:53:05.213Z,38.04
2016-11-26T00:53:45.766Z,38.04
2016-11-26T00:54:26.312Z,38.02
2016-11-26T00:55:06.859Z,37.95
2016-11-26T00:55:47.400Z,37.46
2016-11-26T00:56:27.979Z,37.75
2016-11-26T00:57:08.538Z,37.56
2016-11-26T00:57:49.062Z,37.54
2016-11-26T00:58:29.608Z,37.63
2016-11-26T00:59:10.142Z,37.56
2016-11-26T00:59:50.699Z,37.73
2016-11-26T01:00:31.247Z,37.56
2016-11-26T01:01:11.803Z,37.54
2016-11-26T01:01:52.341Z,37.56
2016-11-26T01:02:32.875Z,37.65
2016-11-26T01:03:13.418Z,37.65
2016-11-26T01:03:53.970Z,37.54
2016-11-26T01:04:34.510Z,37.65
2016-11-26T01:05:15.056Z,38.02
2016-11-26T01:05:55.602Z,37.56
2016-11-26T01:06:36.146Z,37.17
2016-11-26T01:07:16.685Z,37.54
2016-11-26T01:07:57.228Z,37.27
2016-11-26T01:08:37.787Z,37.35
2016-11-26T01:09:18.332Z,37.15
2016-11-26T01:09:58.884Z,37.35
2016-11-26T01:10:39.431Z,37.25
2016-11-26T01:11:19.980Z,37.06
2016-11-26T01:12:00.524Z,37.25
2016-11-26T01:12:41.063Z,37.35
2016-11-26T01:13:21.623Z,37.17
2016-11-26T01:14:02.165Z,37.17
2016-11-26T01:14:42.698Z,37.46
2016-11-26T01:15:23.244Z,37.15
2016-11-26T01:16:03.793Z,37.27
2016-11-26T01:16:44.343Z,37.06
2016-11-26T01:17:24.887Z,37.17
2016-11-26T01:18:05.433Z,37.45
2016-11-26T01:18:45.990Z,37.35
2016-11-26T01:19:26.528Z,37.06
2016-11-26T01:20:07.065Z,37.46
2016-11-26T01:20:47.608Z,36.98
2016-11-26T01:21:28.149Z,37.35
2016-11-26T01:22:08.706Z,37.37
2016-11-26T01:22:49.251Z,37.45
2016-11-26T01:23:29.802Z,37.65
2016-11-26T01:24:10.348Z,37.08
2016-11-26T01:24:50.899Z,36.69
2016-11-26T01:25:31.449Z,36.96
2016-11-26T01:26:12.001Z,37.08
2016-11-26T01:26:52.547Z,36.98
2016-11-26T01:27:33.087Z,36.87
2016-11-26T01:28:13.640Z,36.96
2016-11-26T01:28:54.178Z,36.98
2016-11-26T01:29:34.740Z,36.96
2016-11-26T01:30:15.290Z,36.87
2016-11-26T01:30:56.553Z,36.98
2016-11-26T01:31:36.460Z,36.88
2016-11-26T01:32:17.004Z,36.98
2016-11-26T01:32:57.540Z,36.98
2016-11-26T01:33:38.081Z,36.77
2016-11-26T01:34:18.615Z,36.69
2016-11-26T01:34:59.154Z,36.98
2016-11-26T01:35:39.705Z,37.08
2016-11-26T01:36:20.249Z,37.17
2016-11-26T01:37:00.780Z,37.06
2016-11-26T01:37:41.325Z,37.06
2016-11-26T01:38:21.865Z,37.17
2016-11-26T01:39:02.408Z,37.35
2016-11-26T01:39:42.956Z,37.37
2016-11-26T01:40:23.496Z,37.63
2016-11-26T01:41:04.051Z,37.35
2016-11-26T01:41:44.594Z,37.46
2016-11-26T01:42:25.135Z,37.37
2016-11-26T01:43:05.669Z,37.17
2016-11-26T01:43:46.216Z,37.35
2016-11-26T01:44:26.761Z,37.73
2016-11-26T01:45:07.300Z,37.85
2016-11-26T01:45:47.856Z,37.85
2016-11-26T01:46:28.399Z,37.83
2016-11-26T01:47:08.945Z,37.93
2016-11-26T01:47:49.491Z,37.75
2016-11-26T01:48:30.022Z,37.65
2016-11-26T01:49:10.568Z,37.95
2016-11-26T01:49:51.111Z,37.54
2016-11-26T01:50:31.658Z,37.17
2016-11-26T01:51:12.199Z,37.15
2016-11-26T01:51:52.744Z,37.46
2016-11-26T01:52:33.283Z,37.45
2016-11-26T01:53:13.839Z,37.37
2016-11-26T01:53:54.390Z,37.35
2016-11-26T01:54:34.941Z,37.46
2016-11-26T01:55:15.478Z,37.37
2016-11-26T01:55:56.041Z,37.35
2016-11-26T01:56:36.583Z,37.25
2016-11-26T01:57:17.121Z,37.95
2016-11-26T01:57:57.677Z,37.75
2016-11-26T01:58:38.214Z,37.85
2016-11-26T01:59:18.748Z,37.73
2016-11-26T01:59:59.295Z,37.63
2016-11-26T02:00:39.843Z,37.95
2016-11-26T02:01:20.394Z,37.95
2016-11-26T02:02:00.947Z,37.75
2016-11-26T02:02:41.499Z,37.93
2016-11-26T02:03:22.053Z,37.85
2016-11-26T02:04:02.598Z,37.46
2016-11-26T02:04:43.147Z,37.17
2016-11-26T02:05:23.683Z,37.27
2016-11-26T02:06:04.223Z,37.46
2016-11-26T02:06:44.770Z,37.37
2016-11-26T02:07:25.318Z,37.37
2016-11-26T02:08:05.859Z,37.37
2016-11-26T02:08:46.403Z,36.88
2016-11-26T02:09:26.948Z,37.56
2016-11-26T02:10:07.489Z,37.46
2016-11-26T02:10:48.029Z,37.46
2016-11-26T02:11:28.581Z,36.69
2016-11-26T02:12:09.119Z,37.08
2016-11-26T02:12:49.661Z,36.98
2016-11-26T02:13:30.210Z,36.98
2016-11-26T02:14:10.768Z,36.88
2016-11-26T02:14:51.308Z,36.69
2016-11-26T02:15:31.863Z,36.59
2016-11-26T02:16:12.403Z,36.59
2016-11-26T02:16:52.959Z,36.79
2016-11-26T02:17:33.496Z,36.69
2016-11-26T02:18:14.025Z,36.79
2016-11-26T02:18:54.572Z,36.5
2016-11-26T02:19:35.119Z,36.59
2016-11-26T02:20:15.660Z,36.79
2016-11-26T02:20:56.205Z,36.5
2016-11-26T02:21:36.735Z,36.69
2016-11-26T02:22:17.276Z,36.59
2016-11-26T02:22:57.813Z,36.88
2016-11-26T02:23:38.364Z,36.19
2016-11-26T02:24:18.913Z,36.11
2016-11-26T02:24:59.459Z,36.11
2016-11-26T02:25:40.002Z,36.4
2016-11-26T02:26:20.551Z,36.5
2016-11-26T02:27:01.097Z,36.21
2016-11-26T02:27:41.634Z,36.38
2016-11-26T02:28:22.186Z,36.01
2016-11-26T02:29:02.719Z,36.01
2016-11-26T02:29:43.266Z,36.11
2016-11-26T02:30:23.811Z,36.11
2016-11-26T02:31:04.355Z,36.3
2016-11-26T02:31:44.888Z,36.4
2016-11-26T02:32:25.429Z,36.3
2016-11-26T02:33:05.970Z,36.4
2016-11-26T02:33:46.512Z,36.3
2016-11-26T02:34:27.053Z,36.4
2016-11-26T02:35:07.598Z,36.11
2016-11-26T02:35:48.136Z,36.88
2016-11-26T02:36:28.675Z,36.3
2016-11-26T02:37:09.220Z,36.4
2016-11-26T02:37:49.757Z,36.4
2016-11-26T02:38:30.310Z,36.5
2016-11-26T02:39:10.847Z,36.11
2016-11-26T02:39:51.382Z,36.11
2016-11-26T02:40:31.934Z,36.01
2016-11-26T02:41:12.476Z,35.82
2016-11-26T02:41:53.032Z,36.01
2016-11-26T02:42:33.578Z,36.3
2016-11-26T02:43:14.128Z,36.21
2016-11-26T02:43:54.677Z,36.48
2016-11-26T02:44:35.219Z,36.98
2016-11-26T02:45:15.764Z,36.69
2016-11-26T02:45:56.317Z,36.69
2016-11-26T02:46:36.860Z,36.5
2016-11-26T02:47:17.390Z,36.59
2016-11-26T02:47:57.938Z,36.79
2016-11-26T02:48:38.479Z,36.79
2016-11-26T02:49:19.014Z,36.59
2016-11-26T02:49:59.558Z,36.5
2016-11-26T02:50:40.105Z,36.59
2016-11-26T02:51:20.640Z,36.59
2016-11-26T02:52:01.190Z,36.59
2016-11-26T02:52:41.737Z,36.59
2016-11-26T02:53:22.285Z,36.59
2016-11-26T02:54:02.819Z,36.69
2016-11-26T02:54:43.372Z,36.59
2016-11-26T02:55:23.921Z,36.69
2016-11-26T02:56:04.466Z,36.79
2016-11-26T02:56:45.017Z,36.59
2016-11-26T02:57:25.559Z,36.98
2016-11-26T02:58:06.119Z,36.98
2016-11-26T02:58:46.665Z,36.59
2016-11-26T02:59:27.212Z,36.69
2016-11-26T03:00:07.759Z,36.3
2016-11-26T03:00:48.300Z,36.3
2016-11-26T03:01:28.860Z,36.3
2016-11-26T03:02:09.400Z,36.21
2016-11-26T03:02:49.947Z,36.21
2016-11-26T03:03:30.499Z,36.21
2016-11-26T03:04:11.029Z,36.69
2016-11-26T03:04:51.567Z,36.4
2016-11-26T03:05:32.123Z,36.21
2016-11-26T03:06:12.662Z,36.5
2016-11-26T03:06:53.207Z,36.01
2016-11-26T03:07:33.756Z,36.21
2016-11-26T03:08:14.293Z,36.3
2016-11-26T03:08:54.839Z,36.11
2016-11-26T03:09:35.385Z,36.3
2016-11-26T03:10:15.927Z,35.92
2016-11-26T03:10:56.480Z,36.21
2016-11-26T03:11:37.037Z,36.4
2016-11-26T03:12:17.581Z,36.88
2016-11-26T03:12:58.138Z,36.11
2016-11-26T03:13:38.684Z,36.4
2016-11-26T03:14:19.229Z,36.3
2016-11-26T03:14:59.775Z,36.11
2016-11-26T03:15:40.332Z,36.3
2016-11-26T03:16:20.883Z,36.3
2016-11-26T03:17:01.421Z,36.3
2016-11-26T03:17:41.974Z,36.3
2016-11-26T03:18:22.515Z,36.11
2016-11-26T03:19:03.051Z,36.11
2016-11-26T03:19:43.607Z,36.11
2016-11-26T03:20:24.152Z,35.92
2016-11-26T03:21:04.694Z,36.11
2016-11-26T03:21:45.244Z,36.11
2016-11-26T03:22:25.782Z,36.01
2016-11-26T03:23:06.314Z,36.3
2016-11-26T03:23:46.861Z,35.92
2016-11-26T03:24:27.408Z,36.4
2016-11-26T03:25:07.958Z,36.3
2016-11-26T03:25:48.494Z,36.4
2016-11-26T03:26:29.054Z,35.82
2016-11-26T03:27:09.594Z,35.82
2016-11-26T03:27:50.144Z,35.82
2016-11-26T03:28:30.701Z,35.92
2016-11-26T03:29:11.251Z,35.92
2016-11-26T03:29:51.795Z,35.82
2016-11-26T03:30:32.355Z,36.01
2016-11-26T03:31:12.900Z,35.92
2016-11-26T03:31:53.448Z,36.01
2016-11-26T03:32:34.000Z,35.92
2016-11-26T03:33:14.545Z,36.11
2016-11-26T03:33:55.097Z,36.3
2016-11-26T03:34:35.636Z,35.92
2016-11-26T03:35:16.199Z,36.01
2016-11-26T03:35:56.749Z,35.92
2016-11-26T03:36:37.296Z,35.92
2016-11-26T03:37:17.836Z,35.82
2016-11-26T03:37:58.374Z,35.72
2016-11-26T03:38:38.908Z,35.72
2016-11-26T03:39:19.452Z,35.92
2016-11-26T03:39:59.986Z,35.82
2016-11-26T03:40:40.523Z,35.72
2016-11-26T03:41:21.078Z,35.92
2016-11-26T03:42:01.612Z,36.01
2016-11-26T03:42:42.173Z,35.92
2016-11-26T03:43:22.716Z,36.21
2016-11-26T03:44:03.258Z,36.01
2016-11-26T03:44:43.805Z,35.72
2016-11-26T03:45:24.349Z,35.82
2016-11-26T03:46:04.883Z,35.92
2016-11-26T03:46:45.419Z,35.53
2016-11-26T03:47:25.980Z,35.72
2016-11-26T03:48:06.530Z,35.72
2016-11-26T03:48:47.085Z,35.82
2016-11-26T03:49:27.620Z,35.53
2016-11-26T03:50:08.182Z,35.92
2016-11-26T03:50:48.727Z,35.92
2016-11-26T03:51:29.267Z,35.82
2016-11-26T03:52:09.816Z,35.72
2016-11-26T03:52:50.346Z,36.01
2016-11-26T03:53:30.896Z,36.01
2016-11-26T03:54:11.436Z,35.72
2016-11-26T03:54:52.003Z,35.72
2016-11-26T03:55:32.540Z,36.01
2016-11-26T03:56:13.098Z,35.92
2016-11-26T03:56:53.645Z,36.01
2016-11-26T03:57:34.193Z,35.82
2016-11-26T03:58:14.728Z,35.92
2016-11-26T03:58:55.273Z,35.82
2016-11-26T03:59:35.817Z,35.72
2016-11-26T04:00:16.376Z,36.11
2016-11-26T04:00:56.926Z,35.72
2016-11-26T04:01:37.472Z,35.53
2016-11-26T04:02:18.023Z,35.72
2016-11-26T04:02:58.569Z,35.63
2016-11-26T04:03:39.108Z,35.63
2016-11-26T04:04:19.651Z,35.82
2016-11-26T04:05:00.194Z,35.82
2016-11-26T04:05:40.742Z,35.72
2016-11-26T04:06:21.287Z,35.63
2016-11-26T04:07:01.833Z,35.44
2016-11-26T04:07:42.366Z,35.44
2016-11-26T04:08:22.928Z,35.53
2016-11-26T04:09:03.451Z,35.63
2016-11-26T04:09:44.009Z,35.82
2016-11-26T04:10:24.555Z,35.63
2016-11-26T04:11:05.111Z,35.44
2016-11-26T04:11:45.664Z,35.44
2016-11-26T04:12:26.220Z,35.44
2016-11-26T04:13:06.769Z,35.63
2016-11-26T04:13:47.307Z,35.14
2016-11-26T04:14:27.857Z,35.44
2016-11-26T04:15:08.406Z,35.44
2016-11-26T04:15:48.951Z,35.44
2016-11-26T04:16:29.496Z,35.14
2016-11-26T04:17:10.061Z,35.53
2016-11-26T04:17:50.609Z,35.34
2016-11-26T04:18:31.151Z,35.44
2016-11-26T04:19:11.704Z,35.14
2016-11-26T04:19:52.254Z,35.44
2016-11-26T04:20:32.798Z,35.24
2016-11-26T04:21:13.339Z,35.82
2016-11-26T04:21:53.887Z,35.72
2016-11-26T04:22:34.429Z,35.14
2016-11-26T04:23:14.964Z,35.53
2016-11-26T04:23:55.513Z,35.24
2016-11-26T04:24:36.062Z,35.34
2016-11-26T04:25:16.596Z,35.63
2016-11-26T04:25:57.127Z,35.05
2016-11-26T04:26:37.678Z,34.66
2016-11-26T04:27:18.221Z,34.76
2016-11-26T04:27:58.767Z,34.86
2016-11-26T04:28:39.311Z,34.86
2016-11-26T04:29:19.863Z,34.86
2016-11-26T04:30:00.405Z,34.86
2016-11-26T04:30:40.950Z,34.95
2016-11-26T04:31:21.498Z,34.47
2016-11-26T04:32:02.051Z,34.86
2016-11-26T04:32:42.602Z,34.76
2016-11-26T04:33:23.148Z,34.47
2016-11-26T04:34:03.697Z,34.38
2016-11-26T04:34:44.231Z,34.28
2016-11-26T04:35:24.785Z,34.18
2016-11-26T04:36:05.327Z,34.38
2016-11-26T04:36:45.868Z,34.28
2016-11-26T04:37:26.422Z,34.28
2016-11-26T04:38:06.983Z,34.18
2016-11-26T04:38:47.524Z,34.56
2016-11-26T04:39:28.057Z,34.38
2016-11-26T04:40:08.595Z,34.47
2016-11-26T04:40:49.153Z,34.56
2016-11-26T04:41:29.690Z,34.47
2016-11-26T04:42:10.255Z,34.56
2016-11-26T04:42:50.794Z,34.56
2016-11-26T04:43:31.331Z,34.66
2016-11-26T04:44:11.876Z,34.08
2016-11-26T04:44:52.417Z,34.38
2016-11-26T04:45:32.962Z,33.98
2016-11-26T04:46:13.512Z,33.89
2016-11-26T04:46:54.060Z,34.28
2016-11-26T04:47:34.609Z,34.38
2016-11-26T04:48:15.163Z,34.28
2016-11-26T04:48:55.714Z,34.28
2016-11-26T04:49:36.268Z,34.38
2016-11-26T04:50:16.805Z,34.47
2016-11-26T04:50:57.345Z,33.89
2016-11-26T04:51:37.892Z,34.08
2016-11-26T04:52:18.441Z,33.98
2016-11-26T04:52:58.999Z,33.98
2016-11-26T04:53:39.550Z,34.08
2016-11-26T04:54:20.091Z,33.98
2016-11-26T04:55:00.632Z,33.98
2016-11-26T04:55:41.184Z,33.6
2016-11-26T04:56:21.723Z,33.89
2016-11-26T04:57:02.272Z,33.98
2016-11-26T04:57:42.808Z,33.89
2016-11-26T04:58:23.359Z,33.8
2016-11-26T04:59:03.899Z,33.89
2016-11-26T04:59:44.440Z,33.8
2016-11-26T05:00:24.989Z,33.89
2016-11-26T05:01:05.525Z,33.98
2016-11-26T05:01:46.088Z,33.89
2016-11-26T05:02:26.623Z,33.7
2016-11-26T05:03:07.180Z,33.98
2016-11-26T05:03:47.724Z,33.7
2016-11-26T05:04:28.284Z,33.98
2016-11-26T05:05:08.818Z,34.38
2016-11-26T05:05:49.365Z,34.08
2016-11-26T05:06:29.916Z,33.98
2016-11-26T05:07:10.457Z,33.98
2016-11-26T05:07:51.022Z,33.98
2016-11-26T05:08:31.567Z,34.08
2016-11-26T05:09:12.120Z,33.89
2016-11-26T05:09:52.666Z,33.98
2016-11-26T05:10:33.221Z,33.89
2016-11-26T05:11:13.767Z,34.08
2016-11-26T05:11:54.322Z,33.98
2016-11-26T05:12:34.860Z,33.89
2016-11-26T05:13:15.402Z,33.98
2016-11-26T05:13:55.952Z,33.89
2016-11-26T05:14:36.496Z,33.98
2016-11-26T05:15:17.029Z,33.98
2016-11-26T05:15:57.583Z,33.98
2016-11-26T05:16:38.133Z,33.98
2016-11-26T05:17:18.687Z,33.8
2016-11-26T05:17:59.241Z,33.98
2016-11-26T05:18:39.781Z,33.31
2016-11-26T05:19:20.325Z,33.31
2016-11-26T05:20:00.867Z,33.4
2016-11-26T05:20:41.403Z,33.12
2016-11-26T05:21:21.951Z,33.22
2016-11-26T05:22:02.503Z,33.31
2016-11-26T05:22:43.052Z,33.5
2016-11-26T05:23:23.587Z,33.22
2016-11-26T05:24:04.137Z,33.4
2016-11-26T05:24:44.692Z,33.4
2016-11-26T05:25:25.241Z,33.4
2016-11-26T05:26:05.785Z,33.4
2016-11-26T05:26:46.342Z,33.5
2016-11-26T05:27:26.883Z,33.4
2016-11-26T05:28:07.427Z,33.31
2016-11-26T05:28:47.975Z,33.4
2016-11-26T05:29:28.517Z,33.31
2016-11-26T05:30:09.056Z,33.98
2016-11-26T05:30:49.603Z,33.8
2016-11-26T05:31:30.154Z,33.89
2016-11-26T05:32:10.700Z,33.98
2016-11-26T05:32:51.242Z,33.89
2016-11-26T05:33:31.789Z,33.6
2016-11-26T05:34:12.345Z,33.8
2016-11-26T05:34:52.889Z,33.98
2016-11-26T05:35:33.433Z,34.56
2016-11-26T05:36:13.978Z,34.18
2016-11-26T05:36:54.521Z,34.38
2016-11-26T05:37:35.064Z,34.38
2016-11-26T05:38:15.615Z,34.28
2016-11-26T05:38:56.160Z,34.18
2016-11-26T05:39:36.704Z,34.28
2016-11-26T05:40:17.243Z,34.38
2016-11-26T05:40:57.796Z,33.98
2016-11-26T05:41:38.342Z,34.47
2016-11-26T05:42:18.884Z,34.28
2016-11-26T05:42:59.421Z,34.38
2016-11-26T05:43:39.960Z,34.56
2016-11-26T05:44:20.509Z,34.28
2016-11-26T05:45:01.066Z,34.47
2016-11-26T05:45:41.613Z,34.47
2016-11-26T05:46:22.148Z,34.47
2016-11-26T05:47:02.694Z,34.38
2016-11-26T05:47:43.239Z,34.28
2016-11-26T05:48:23.798Z,34.28
2016-11-26T05:49:04.340Z,34.28
2016-11-26T05:49:44.887Z,34.38
2016-11-26T05:50:25.430Z,34.56
2016-11-26T05:51:05.981Z,34.38
2016-11-26T05:51:46.527Z,34.38
2016-11-26T05:52:27.080Z,34.56
2016-11-26T05:53:07.624Z,34.66
2016-11-26T05:53:48.182Z,34.47
2016-11-26T05:54:28.720Z,34.38
2016-11-26T05:55:09.251Z,34.18
2016-11-26T05:55:49.797Z,34.66
2016-11-26T05:56:30.339Z,34.56
2016-11-26T05:57:10.881Z,34.47
2016-11-26T05:57:51.427Z,34.56
2016-11-26T05:58:31.985Z,34.66
2016-11-26T05:59:12.527Z,34.38
2016-11-26T05:59:53.083Z,34.47
2016-11-26T06:00:33.627Z,34.47
2016-11-26T06:01:14.184Z,34.66
2016-11-26T06:01:54.733Z,34.38
2016-11-26T06:02:35.296Z,34.38
2016-11-26T06:03:15.844Z,34.66
2016-11-26T06:03:56.392Z,34.56
2016-11-26T06:04:36.939Z,34.47
2016-11-26T06:05:17.480Z,34.47
2016-11-26T06:05:58.020Z,34.66
2016-11-26T06:06:38.564Z,34.56
2016-11-26T06:07:19.104Z,34.28
2016-11-26T06:07:59.646Z,34.66
2016-11-26T06:08:40.202Z,34.38
2016-11-26T06:09:20.736Z,34.47
2016-11-26T06:10:01.284Z,34.08
2016-11-26T06:10:41.829Z,34.38
2016-11-26T06:11:22.377Z,34.56
2016-11-26T06:12:02.926Z,34.38
2016-11-26T06:12:43.474Z,34.47
2016-11-26T06:13:24.023Z,34.08
2016-11-26T06:14:04.567Z,33.98
2016-11-26T06:14:45.109Z,34.28
2016-11-26T06:15:25.651Z,34.38
2016-11-26T06:16:06.206Z,34.18
2016-11-26T06:16:46.741Z,34.08
2016-11-26T06:17:27.307Z,33.8
2016-11-26T06:18:07.831Z,34.08
2016-11-26T06:18:48.382Z,34.56
2016-11-26T06:19:28.916Z,33.98
2016-11-26T06:20:09.466Z,33.98
2016-11-26T06:20:50.006Z,34.18
2016-11-26T06:21:30.551Z,33.98
2016-11-26T06:22:11.095Z,34.47
2016-11-26T06:22:51.636Z,34.28
2016-11-26T06:23:32.175Z,34.38
2016-11-26T06:24:12.728Z,34.38
2016-11-26T06:24:53.309Z,34.38
2016-11-26T06:25:33.826Z,34.38
2016-11-26T06:26:14.389Z,34.38
2016-11-26T06:26:54.937Z,34.38
2016-11-26T06:27:35.488Z,34.28
2016-11-26T06:28:16.030Z,34.28
2016-11-26T06:28:56.579Z,34.38
2016-11-26T06:29:37.125Z,34.28
2016-11-26T06:30:17.673Z,34.38
2016-11-26T06:30:58.224Z,33.98
2016-11-26T06:31:38.770Z,34.28
2016-11-26T06:32:19.331Z,34.47
2016-11-26T06:32:59.865Z,34.47
2016-11-26T06:33:40.419Z,34.66
2016-11-26T06:34:20.967Z,34.56
2016-11-26T06:35:01.513Z,34.18
2016-11-26T06:35:42.063Z,34.38
2016-11-26T06:36:22.599Z,34.47
2016-11-26T06:37:03.147Z,34.08
2016-11-26T06:37:43.683Z,34.47
2016-11-26T06:38:24.230Z,34.56
2016-11-26T06:39:04.770Z,34.47
2016-11-26T06:39:45.316Z,34.47
2016-11-26T06:40:25.862Z,34.47
2016-11-26T06:41:06.405Z,34.28
2016-11-26T06:41:46.954Z,34.56
2016-11-26T06:42:27.500Z,34.47
2016-11-26T06:43:08.038Z,34.66
2016-11-26T06:43:48.580Z,34.47
2016-11-26T06:44:29.115Z,34.56
2016-11-26T06:45:09.658Z,34.66
2016-11-26T06:45:50.210Z,34.47
2016-11-26T06:46:30.764Z,34.38
2016-11-26T06:47:11.311Z,34.56
2016-11-26T06:47:51.859Z,34.56
2016-11-26T06:48:32.415Z,34.66
2016-11-26T06:49:12.959Z,34.66
2016-11-26T06:49:53.505Z,34.86
2016-11-26T06:50:34.044Z,34.95
2016-11-26T06:51:14.589Z,34.86
2016-11-26T06:51:55.127Z,34.76
2016-11-26T06:52:35.664Z,34.76
2016-11-26T06:53:16.204Z,34.76
2016-11-26T06:53:56.746Z,34.66
2016-11-26T06:54:37.281Z,34.76
2016-11-26T06:55:17.830Z,34.66
2016-11-26T06:55:58.376Z,34.76
2016-11-26T06:56:38.925Z,34.66
2016-11-26T06:57:19.462Z,34.76
2016-11-26T06:58:00.026Z,34.66
2016-11-26T06:58:40.574Z,34.66
2016-11-26T06:59:21.129Z,34.76
2016-11-26T07:00:01.677Z,34.47
2016-11-26T07:00:42.228Z,34.56
2016-11-26T07:01:22.769Z,34.47
2016-11-26T07:02:03.329Z,34.56
2016-11-26T07:02:43.871Z,34.38
2016-11-26T07:03:24.431Z,34.47
2016-11-26T07:04:04.976Z,34.66
2016-11-26T07:04:45.510Z,34.38
2016-11-26T07:05:26.053Z,34.56
2016-11-26T07:06:06.604Z,34.76
2016-11-26T07:06:47.146Z,34.56
2016-11-26T07:07:27.689Z,34.66
2016-11-26T07:08:08.240Z,34.38
2016-11-26T07:08:48.783Z,34.66
2016-11-26T07:09:29.336Z,34.28
2016-11-26T07:10:09.883Z,34.47
2016-11-26T07:10:50.441Z,34.18
2016-11-26T07:11:30.972Z,34.08
2016-11-26T07:12:11.508Z,34.47
2016-11-26T07:12:52.071Z,34.38
2016-11-26T07:13:32.609Z,34.28
2016-11-26T07:14:13.154Z,34.56
2016-11-26T07:14:53.703Z,34.47
2016-11-26T07:15:34.245Z,34.28
2016-11-26T07:16:14.787Z,34.28
2016-11-26T07:16:55.346Z,34.38
2016-11-26T07:17:35.891Z,34.47
2016-11-26T07:18:16.451Z,34.08
2016-11-26T07:18:56.994Z,34.08
2016-11-26T07:19:37.532Z,33.89
2016-11-26T07:20:18.107Z,33.8
2016-11-26T07:20:58.616Z,33.89
2016-11-26T07:21:39.160Z,33.89
2016-11-26T07:22:19.712Z,33.98
2016-11-26T07:23:00.262Z,33.89
2016-11-26T07:23:40.807Z,33.7
2016-11-26T07:24:21.350Z,33.6
2016-11-26T07:25:01.898Z,34.08
2016-11-26T07:25:42.451Z,33.8
2016-11-26T07:26:22.992Z,33.31
2016-11-26T07:27:03.525Z,33.5
2016-11-26T07:27:44.088Z,33.12
2016-11-26T07:28:24.638Z,33.12
2016-11-26T07:29:05.178Z,33.12
2016-11-26T07:29:45.720Z,33.02
2016-11-26T07:30:26.267Z,33.02
2016-11-26T07:31:06.810Z,32.92
2016-11-26T07:31:47.361Z,32.92
2016-11-26T07:32:27.906Z,32.82
2016-11-26T07:33:08.462Z,32.64
2016-11-26T07:33:49.000Z,32.73
2016-11-26T07:34:29.549Z,32.92
2016-11-26T07:35:10.099Z,32.82
2016-11-26T07:35:50.640Z,32.92
2016-11-26T07:36:31.182Z,33.02
2016-11-26T07:37:11.741Z,32.82
2016-11-26T07:37:52.280Z,32.92
2016-11-26T07:38:32.824Z,32.92
2016-11-26T07:39:13.376Z,33.02
2016-11-26T07:39:53.916Z,32.82
2016-11-26T07:40:34.483Z,32.82
2016-11-26T07:41:15.032Z,32.82
2016-11-26T07:41:55.568Z,32.92
2016-11-26T07:42:36.116Z,32.92
2016-11-26T07:43:16.659Z,33.12
2016-11-26T07:43:57.214Z,33.12
2016-11-26T07:44:37.758Z,32.92
2016-11-26T07:45:18.300Z,33.12
2016-11-26T07:45:58.852Z,33.12
2016-11-26T07:46:39.398Z,33.4
2016-11-26T07:47:19.937Z,33.5
2016-11-26T07:48:00.481Z,33.5
2016-11-26T07:48:41.027Z,33.8
2016-11-26T07:49:21.588Z,33.8
2016-11-26T07:50:02.123Z,33.89
2016-11-26T07:50:42.667Z,33.89
2016-11-26T07:51:23.233Z,34.08
2016-11-26T07:52:03.774Z,34.08
2016-11-26T07:52:44.321Z,33.8
2016-11-26T07:53:24.868Z,33.89
2016-11-26T07:54:05.403Z,33.89
2016-11-26T07:54:45.952Z,33.89
2016-11-26T07:55:26.488Z,33.98
2016-11-26T07:56:07.028Z,34.18
2016-11-26T07:56:47.567Z,33.89
2016-11-26T07:57:28.125Z,33.8
2016-11-26T07:58:08.668Z,33.8
2016-11-26T07:58:49.230Z,33.89
2016-11-26T07:59:29.768Z,33.8
2016-11-26T08:00:10.311Z,33.8
2016-11-26T08:00:50.860Z,34.18
2016-11-26T08:01:31.408Z,33.22
2016-11-26T08:02:11.949Z,33.22
2016-11-26T08:02:52.504Z,33.31
2016-11-26T08:03:33.053Z,33.31
2016-11-26T08:04:13.603Z,33.31
2016-11-26T08:04:54.143Z,33.31
2016-11-26T08:05:34.683Z,33.5
2016-11-26T08:06:15.220Z,33.22
2016-11-26T08:06:55.756Z,33.8
2016-11-26T08:07:36.299Z,33.7
2016-11-26T08:08:16.837Z,33.22
2016-11-26T08:08:57.369Z,33.12
2016-11-26T08:09:37.905Z,33.4
2016-11-26T08:10:18.435Z,33.4
2016-11-26T08:10:58.981Z,33.7
2016-11-26T08:11:39.516Z,33.22
2016-11-26T08:12:20.065Z,33.31
2016-11-26T08:13:00.588Z,33.5
2016-11-26T08:13:41.120Z,33.5
2016-11-26T08:14:21.679Z,33.4
2016-11-26T08:15:02.207Z,33.5
2016-11-26T08:15:42.762Z,33.5
2016-11-26T08:16:23.304Z,33.8
2016-11-26T08:17:03.833Z,33.98
2016-11-26T08:17:44.376Z,33.89
2016-11-26T08:18:24.916Z,34.18
2016-11-26T08:19:05.460Z,33.89
2016-11-26T08:19:46.024Z,33.89
2016-11-26T08:20:26.560Z,32.64
2016-11-26T08:21:07.091Z,25.4
2016-11-26T08:21:47.641Z,23.17
2016-11-26T08:22:28.184Z,23.27
2016-11-26T08:23:08.722Z,22.97
2016-11-26T08:23:49.265Z,22.96
2016-11-26T08:24:29.803Z,23.81
2016-11-26T08:25:10.344Z,23.81
2016-11-26T08:25:50.877Z,23.9
2016-11-26T08:26:31.444Z,24.67
2016-11-26T08:27:11.991Z,25.04
2016-11-26T08:27:52.543Z,25.04
2016-11-26T08:28:33.090Z,25.43
2016-11-26T08:29:13.637Z,25.51
2016-11-26T08:29:54.178Z,25.6
2016-11-26T08:30:34.722Z,25.69
2016-11-26T08:31:15.277Z,25.98
2016-11-26T08:31:55.815Z,25.69
2016-11-26T08:32:36.359Z,26.36
2016-11-26T08:33:16.875Z,26.46
2016-11-26T08:33:57.474Z,26.75
2016-11-26T08:34:38.101Z,27.04
2016-11-26T08:35:18.629Z,27.13
2016-11-26T08:35:59.170Z,26.73
2016-11-26T08:36:39.701Z,26.45
2016-11-26T08:37:20.232Z,26.45
2016-11-26T08:38:00.827Z,27.02
2016-11-26T08:38:41.467Z,26.35
2016-11-26T08:39:22.015Z,26.45
2016-11-26T08:40:02.549Z,27.02
2016-11-26T08:40:43.100Z,27.22
2016-11-26T08:41:23.639Z,27.02
2016-11-26T08:42:04.191Z,26.93
2016-11-26T08:42:44.721Z,26.35
2016-11-26T08:43:25.263Z,26.72
2016-11-26T08:44:05.795Z,26.93